sensor_id;sensor_type;location;lat;lon;timestamp;P1;durP1;ratioP1;P2;durP2;ratioP2
7965;SDS011;4028;43.272;26.932;2024-03-17T00:02:20;26.03;;;16.67;;
7965;SDS011;4028;43.272;26.932;2024-03-17T00:04:46;20.73;;;14.97;;
7965;SDS011;4028;43.272;26.932;2024-03-17T00:07:12;24.27;;;16.97;;
7965;SDS011;4028;43.272;26.932;2024-03-17T00:09:38;20.07;;;15.93;;
7965;SDS011;4028;43.272;26.932;2024-03-17T00:12:04;18.33;;;14.70;;
7965;SDS011;4028;43.272;26.932;2024-03-17T00:14:30;18.40;;;13.70;;
7965;SDS011;4028;43.272;26.932;2024-03-17T00:16:55;19.17;;;13.47;;
7965;SDS011;4028;43.272;26.932;2024-03-17T00:19:21;16.70;;;12.70;;
7965;SDS011;4028;43.272;26.932;2024-03-17T00:21:48;17.23;;;12.87;;
7965;SDS011;4028;43.272;26.932;2024-03-17T00:24:18;18.33;;;12.03;;
7965;SDS011;4028;43.272;26.932;2024-03-17T00:26:44;17.53;;;12.53;;
7965;SDS011;4028;43.272;26.932;2024-03-17T00:29:10;15.80;;;12.17;;
7965;SDS011;4028;43.272;26.932;2024-03-17T00:31:36;13.30;;;11.27;;
7965;SDS011;4028;43.272;26.932;2024-03-17T00:34:02;14.57;;;11.93;;
7965;SDS011;4028;43.272;26.932;2024-03-17T00:36:27;14.77;;;12.43;;
7965;SDS011;4028;43.272;26.932;2024-03-17T00:38:53;16.53;;;12.43;;
7965;SDS011;4028;43.272;26.932;2024-03-17T00:41:18;15.70;;;11.63;;
7965;SDS011;4028;43.272;26.932;2024-03-17T00:43:44;16.00;;;12.60;;
7965;SDS011;4028;43.272;26.932;2024-03-17T00:46:10;14.93;;;12.23;;
7965;SDS011;4028;43.272;26.932;2024-03-17T00:48:35;14.77;;;12.10;;
7965;SDS011;4028;43.272;26.932;2024-03-17T00:51:01;14.90;;;11.73;;
7965;SDS011;4028;43.272;26.932;2024-03-17T00:53:27;14.20;;;11.27;;
7965;SDS011;4028;43.272;26.932;2024-03-17T00:55:56;15.50;;;12.10;;
7965;SDS011;4028;43.272;26.932;2024-03-17T00:58:28;15.17;;;11.53;;
7965;SDS011;4028;43.272;26.932;2024-03-17T01:00:54;14.80;;;11.23;;
7965;SDS011;4028;43.272;26.932;2024-03-17T01:03:19;18.33;;;14.00;;
7965;SDS011;4028;43.272;26.932;2024-03-17T01:05:44;22.83;;;14.03;;
7965;SDS011;4028;43.272;26.932;2024-03-17T01:08:12;17.97;;;13.37;;
7965;SDS011;4028;43.272;26.932;2024-03-17T01:10:39;20.93;;;15.13;;
7965;SDS011;4028;43.272;26.932;2024-03-17T01:13:05;20.10;;;14.77;;
7965;SDS011;4028;43.272;26.932;2024-03-17T01:15:32;19.93;;;16.13;;
7965;SDS011;4028;43.272;26.932;2024-03-17T01:17:58;18.60;;;16.03;;
7965;SDS011;4028;43.272;26.932;2024-03-17T01:20:25;20.00;;;15.87;;
7965;SDS011;4028;43.272;26.932;2024-03-17T01:22:50;19.43;;;16.87;;
7965;SDS011;4028;43.272;26.932;2024-03-17T01:25:16;18.47;;;14.77;;
7965;SDS011;4028;43.272;26.932;2024-03-17T01:27:41;19.10;;;14.70;;
7965;SDS011;4028;43.272;26.932;2024-03-17T01:30:08;15.10;;;13.40;;
7965;SDS011;4028;43.272;26.932;2024-03-17T01:32:37;14.73;;;12.17;;
7965;SDS011;4028;43.272;26.932;2024-03-17T01:35:02;18.10;;;12.03;;
7965;SDS011;4028;43.272;26.932;2024-03-17T01:37:28;14.07;;;11.90;;
7965;SDS011;4028;43.272;26.932;2024-03-17T01:39:57;14.03;;;11.63;;
7965;SDS011;4028;43.272;26.932;2024-03-17T01:42:23;12.63;;;11.27;;
7965;SDS011;4028;43.272;26.932;2024-03-17T01:44:48;15.27;;;11.77;;
7965;SDS011;4028;43.272;26.932;2024-03-17T01:47:15;13.27;;;10.93;;
7965;SDS011;4028;43.272;26.932;2024-03-17T01:49:44;13.60;;;10.67;;
7965;SDS011;4028;43.272;26.932;2024-03-17T01:52:11;12.13;;;10.53;;
7965;SDS011;4028;43.272;26.932;2024-03-17T01:54:36;13.37;;;10.73;;
7965;SDS011;4028;43.272;26.932;2024-03-17T01:57:03;12.43;;;10.30;;
7965;SDS011;4028;43.272;26.932;2024-03-17T01:59:28;10.27;;;8.73;;
7965;SDS011;4028;43.272;26.932;2024-03-17T02:01:54;12.30;;;9.20;;
7965;SDS011;4028;43.272;26.932;2024-03-17T02:04:19;12.60;;;9.70;;
7965;SDS011;4028;43.272;26.932;2024-03-17T02:06:47;12.33;;;9.47;;
7965;SDS011;4028;43.272;26.932;2024-03-17T02:09:12;13.43;;;10.17;;
7965;SDS011;4028;43.272;26.932;2024-03-17T02:11:38;12.90;;;9.93;;
7965;SDS011;4028;43.272;26.932;2024-03-17T02:14:03;12.67;;;9.40;;
7965;SDS011;4028;43.272;26.932;2024-03-17T02:16:31;13.63;;;11.10;;
7965;SDS011;4028;43.272;26.932;2024-03-17T02:18:57;15.17;;;12.80;;
7965;SDS011;4028;43.272;26.932;2024-03-17T02:21:23;16.30;;;11.93;;
7965;SDS011;4028;43.272;26.932;2024-03-17T02:23:52;18.37;;;12.50;;
7965;SDS011;4028;43.272;26.932;2024-03-17T02:26:18;14.83;;;12.00;;
7965;SDS011;4028;43.272;26.932;2024-03-17T02:28:44;15.90;;;11.03;;
7965;SDS011;4028;43.272;26.932;2024-03-17T02:31:12;12.70;;;9.63;;
7965;SDS011;4028;43.272;26.932;2024-03-17T02:33:38;14.73;;;9.13;;
7965;SDS011;4028;43.272;26.932;2024-03-17T02:36:04;11.40;;;9.40;;
7965;SDS011;4028;43.272;26.932;2024-03-17T02:38:34;10.90;;;9.00;;
7965;SDS011;4028;43.272;26.932;2024-03-17T02:41:19;15.57;;;9.23;;
7965;SDS011;4028;43.272;26.932;2024-03-17T02:43:45;11.67;;;9.00;;
7965;SDS011;4028;43.272;26.932;2024-03-17T02:46:14;11.93;;;9.00;;
7965;SDS011;4028;43.272;26.932;2024-03-17T02:48:41;11.70;;;9.60;;
7965;SDS011;4028;43.272;26.932;2024-03-17T02:51:12;11.37;;;9.07;;
7965;SDS011;4028;43.272;26.932;2024-03-17T02:53:40;13.13;;;10.13;;
7965;SDS011;4028;43.272;26.932;2024-03-17T02:56:07;11.93;;;9.23;;
7965;SDS011;4028;43.272;26.932;2024-03-17T02:58:35;11.90;;;9.00;;
7965;SDS011;4028;43.272;26.932;2024-03-17T03:01:02;14.07;;;10.13;;
7965;SDS011;4028;43.272;26.932;2024-03-17T03:03:29;11.67;;;9.00;;
7965;SDS011;4028;43.272;26.932;2024-03-17T03:05:55;12.07;;;9.20;;
7965;SDS011;4028;43.272;26.932;2024-03-17T03:08:22;11.60;;;8.90;;
7965;SDS011;4028;43.272;26.932;2024-03-17T03:10:50;9.77;;;8.33;;
7965;SDS011;4028;43.272;26.932;2024-03-17T03:13:16;11.20;;;9.50;;
7965;SDS011;4028;43.272;26.932;2024-03-17T03:15:42;11.07;;;9.67;;
7965;SDS011;4028;43.272;26.932;2024-03-17T03:18:08;14.70;;;9.90;;
7965;SDS011;4028;43.272;26.932;2024-03-17T03:20:34;13.23;;;10.43;;
7965;SDS011;4028;43.272;26.932;2024-03-17T03:23:00;13.83;;;10.73;;
7965;SDS011;4028;43.272;26.932;2024-03-17T03:25:27;12.10;;;9.97;;
7965;SDS011;4028;43.272;26.932;2024-03-17T03:27:53;12.63;;;10.50;;
7965;SDS011;4028;43.272;26.932;2024-03-17T03:30:21;15.30;;;11.83;;
7965;SDS011;4028;43.272;26.932;2024-03-17T03:32:47;13.27;;;11.87;;
7965;SDS011;4028;43.272;26.932;2024-03-17T03:35:13;15.35;;;12.90;;
7965;SDS011;4028;43.272;26.932;2024-03-17T03:37:39;13.33;;;11.90;;
7965;SDS011;4028;43.272;26.932;2024-03-17T03:40:06;13.23;;;11.83;;
7965;SDS011;4028;43.272;26.932;2024-03-17T03:42:41;12.43;;;10.70;;
7965;SDS011;4028;43.272;26.932;2024-03-17T03:45:08;15.07;;;10.70;;
7965;SDS011;4028;43.272;26.932;2024-03-17T03:47:34;13.67;;;11.87;;
7965;SDS011;4028;43.272;26.932;2024-03-17T03:50:00;12.13;;;10.03;;
7965;SDS011;4028;43.272;26.932;2024-03-17T03:52:25;13.30;;;11.10;;
7965;SDS011;4028;43.272;26.932;2024-03-17T03:54:51;12.63;;;10.83;;
7965;SDS011;4028;43.272;26.932;2024-03-17T03:57:17;14.80;;;10.50;;
7965;SDS011;4028;43.272;26.932;2024-03-17T03:59:43;13.80;;;11.27;;
7965;SDS011;4028;43.272;26.932;2024-03-17T04:02:09;15.77;;;12.17;;
7965;SDS011;4028;43.272;26.932;2024-03-17T04:04:34;13.80;;;12.03;;
7965;SDS011;4028;43.272;26.932;2024-03-17T04:07:00;16.60;;;13.87;;
7965;SDS011;4028;43.272;26.932;2024-03-17T04:09:25;15.53;;;12.00;;
7965;SDS011;4028;43.272;26.932;2024-03-17T04:11:51;14.77;;;11.50;;
7965;SDS011;4028;43.272;26.932;2024-03-17T04:14:17;15.07;;;11.30;;
7965;SDS011;4028;43.272;26.932;2024-03-17T04:16:43;15.80;;;11.83;;
7965;SDS011;4028;43.272;26.932;2024-03-17T04:19:09;16.20;;;11.70;;
7965;SDS011;4028;43.272;26.932;2024-03-17T04:21:34;15.57;;;11.80;;
7965;SDS011;4028;43.272;26.932;2024-03-17T04:23:59;14.30;;;10.90;;
7965;SDS011;4028;43.272;26.932;2024-03-17T04:26:25;15.93;;;11.87;;
7965;SDS011;4028;43.272;26.932;2024-03-17T04:28:50;15.20;;;12.63;;
7965;SDS011;4028;43.272;26.932;2024-03-17T04:31:17;21.37;;;16.23;;
7965;SDS011;4028;43.272;26.932;2024-03-17T04:33:43;19.90;;;16.03;;
7965;SDS011;4028;43.272;26.932;2024-03-17T04:36:08;19.40;;;17.30;;
7965;SDS011;4028;43.272;26.932;2024-03-17T04:38:34;17.50;;;15.70;;
7965;SDS011;4028;43.272;26.932;2024-03-17T04:40:59;16.70;;;13.37;;
7965;SDS011;4028;43.272;26.932;2024-03-17T04:43:34;20.17;;;11.90;;
7965;SDS011;4028;43.272;26.932;2024-03-17T04:46:01;15.97;;;11.93;;
7965;SDS011;4028;43.272;26.932;2024-03-17T04:48:29;17.67;;;12.03;;
7965;SDS011;4028;43.272;26.932;2024-03-17T04:50:55;15.40;;;11.33;;
7965;SDS011;4028;43.272;26.932;2024-03-17T04:53:21;16.70;;;11.80;;
7965;SDS011;4028;43.272;26.932;2024-03-17T04:55:46;14.70;;;11.73;;
7965;SDS011;4028;43.272;26.932;2024-03-17T04:58:12;15.70;;;11.90;;
7965;SDS011;4028;43.272;26.932;2024-03-17T05:00:37;13.80;;;12.27;;
7965;SDS011;4028;43.272;26.932;2024-03-17T05:03:03;16.87;;;13.57;;
7965;SDS011;4028;43.272;26.932;2024-03-17T05:05:29;20.97;;;14.67;;
7965;SDS011;4028;43.272;26.932;2024-03-17T05:07:54;21.93;;;13.73;;
7965;SDS011;4028;43.272;26.932;2024-03-17T05:10:20;15.40;;;13.80;;
7965;SDS011;4028;43.272;26.932;2024-03-17T05:12:45;19.50;;;13.43;;
7965;SDS011;4028;43.272;26.932;2024-03-17T05:15:12;15.70;;;12.97;;
7965;SDS011;4028;43.272;26.932;2024-03-17T05:17:37;18.07;;;13.37;;
7965;SDS011;4028;43.272;26.932;2024-03-17T05:20:03;20.57;;;14.37;;
7965;SDS011;4028;43.272;26.932;2024-03-17T05:22:29;21.20;;;16.00;;
7965;SDS011;4028;43.272;26.932;2024-03-17T05:24:54;29.80;;;17.90;;
7965;SDS011;4028;43.272;26.932;2024-03-17T05:27:20;26.10;;;18.00;;
7965;SDS011;4028;43.272;26.932;2024-03-17T05:29:45;28.93;;;17.97;;
7965;SDS011;4028;43.272;26.932;2024-03-17T05:32:11;27.13;;;16.80;;
7965;SDS011;4028;43.272;26.932;2024-03-17T05:34:37;26.20;;;17.37;;
7965;SDS011;4028;43.272;26.932;2024-03-17T05:37:03;25.00;;;18.53;;
7965;SDS011;4028;43.272;26.932;2024-03-17T05:39:28;25.77;;;17.23;;
7965;SDS011;4028;43.272;26.932;2024-03-17T05:41:54;27.07;;;17.70;;
7965;SDS011;4028;43.272;26.932;2024-03-17T05:44:19;24.57;;;17.07;;
7965;SDS011;4028;43.272;26.932;2024-03-17T05:46:45;23.70;;;17.70;;
7965;SDS011;4028;43.272;26.932;2024-03-17T05:49:11;21.93;;;16.50;;
7965;SDS011;4028;43.272;26.932;2024-03-17T05:51:36;24.87;;;17.33;;
7965;SDS011;4028;43.272;26.932;2024-03-17T05:54:02;26.57;;;18.33;;
7965;SDS011;4028;43.272;26.932;2024-03-17T05:56:27;27.07;;;19.40;;
7965;SDS011;4028;43.272;26.932;2024-03-17T05:58:53;31.50;;;17.63;;
7965;SDS011;4028;43.272;26.932;2024-03-17T06:01:18;26.07;;;19.20;;
7965;SDS011;4028;43.272;26.932;2024-03-17T06:03:44;25.20;;;19.50;;
7965;SDS011;4028;43.272;26.932;2024-03-17T06:06:10;29.40;;;20.57;;
7965;SDS011;4028;43.272;26.932;2024-03-17T06:08:36;28.23;;;20.50;;
7965;SDS011;4028;43.272;26.932;2024-03-17T06:11:02;23.57;;;20.03;;
7965;SDS011;4028;43.272;26.932;2024-03-17T06:13:29;27.83;;;20.50;;
7965;SDS011;4028;43.272;26.932;2024-03-17T06:15:55;26.40;;;20.20;;
7965;SDS011;4028;43.272;26.932;2024-03-17T06:18:25;26.43;;;20.03;;
7965;SDS011;4028;43.272;26.932;2024-03-17T06:20:51;26.07;;;19.67;;
7965;SDS011;4028;43.272;26.932;2024-03-17T06:23:16;25.13;;;20.33;;
7965;SDS011;4028;43.272;26.932;2024-03-17T06:25:43;27.23;;;21.23;;
7965;SDS011;4028;43.272;26.932;2024-03-17T06:28:10;26.87;;;21.33;;
7965;SDS011;4028;43.272;26.932;2024-03-17T06:30:40;30.37;;;22.10;;
7965;SDS011;4028;43.272;26.932;2024-03-17T06:33:06;25.80;;;23.00;;
7965;SDS011;4028;43.272;26.932;2024-03-17T06:35:33;26.73;;;18.97;;
7965;SDS011;4028;43.272;26.932;2024-03-17T06:38:01;18.77;;;15.50;;
7965;SDS011;4028;43.272;26.932;2024-03-17T06:40:27;21.10;;;16.17;;
7965;SDS011;4028;43.272;26.932;2024-03-17T06:42:53;20.90;;;15.60;;
7965;SDS011;4028;43.272;26.932;2024-03-17T06:45:19;16.67;;;14.87;;
7965;SDS011;4028;43.272;26.932;2024-03-17T06:47:47;17.67;;;15.77;;
7965;SDS011;4028;43.272;26.932;2024-03-17T06:50:13;17.73;;;15.73;;
7965;SDS011;4028;43.272;26.932;2024-03-17T06:52:38;18.23;;;15.23;;
7965;SDS011;4028;43.272;26.932;2024-03-17T06:55:05;15.90;;;14.20;;
7965;SDS011;4028;43.272;26.932;2024-03-17T06:57:32;15.67;;;13.87;;
7965;SDS011;4028;43.272;26.932;2024-03-17T06:59:59;15.77;;;14.17;;
7965;SDS011;4028;43.272;26.932;2024-03-17T07:02:24;16.60;;;14.00;;
7965;SDS011;4028;43.272;26.932;2024-03-17T07:04:50;15.27;;;13.27;;
7965;SDS011;4028;43.272;26.932;2024-03-17T07:07:16;14.13;;;12.73;;
7965;SDS011;4028;43.272;26.932;2024-03-17T07:09:41;16.77;;;13.67;;
7965;SDS011;4028;43.272;26.932;2024-03-17T07:12:07;17.80;;;14.87;;
7965;SDS011;4028;43.272;26.932;2024-03-17T07:14:33;16.50;;;14.80;;
7965;SDS011;4028;43.272;26.932;2024-03-17T07:16:59;17.57;;;15.70;;
7965;SDS011;4028;43.272;26.932;2024-03-17T07:19:24;18.93;;;16.90;;
7965;SDS011;4028;43.272;26.932;2024-03-17T07:21:50;17.97;;;15.40;;
7965;SDS011;4028;43.272;26.932;2024-03-17T07:24:15;18.87;;;16.87;;
7965;SDS011;4028;43.272;26.932;2024-03-17T07:26:41;18.63;;;16.63;;
7965;SDS011;4028;43.272;26.932;2024-03-17T07:29:06;18.73;;;16.77;;
7965;SDS011;4028;43.272;26.932;2024-03-17T07:31:33;17.60;;;15.65;;
7965;SDS011;4028;43.272;26.932;2024-03-17T07:33:59;18.20;;;16.20;;
7965;SDS011;4028;43.272;26.932;2024-03-17T07:36:24;18.70;;;16.17;;
7965;SDS011;4028;43.272;26.932;2024-03-17T07:38:50;18.75;;;16.00;;
7965;SDS011;4028;43.272;26.932;2024-03-17T07:41:16;17.92;;;16.10;;
7965;SDS011;4028;43.272;26.932;2024-03-17T07:43:41;18.30;;;16.30;;
7965;SDS011;4028;43.272;26.932;2024-03-17T07:46:07;18.58;;;16.67;;
7965;SDS011;4028;43.272;26.932;2024-03-17T07:48:36;19.27;;;15.85;;
7965;SDS011;4028;43.272;26.932;2024-03-17T07:53:34;17.48;;;15.70;;
7965;SDS011;4028;43.272;26.932;2024-03-17T07:56:07;16.13;;;14.45;;
7965;SDS011;4028;43.272;26.932;2024-03-17T07:58:38;18.25;;;14.52;;
7965;SDS011;4028;43.272;26.932;2024-03-17T08:01:05;18.45;;;14.57;;
7965;SDS011;4028;43.272;26.932;2024-03-17T08:03:32;20.85;;;16.00;;
7965;SDS011;4028;43.272;26.932;2024-03-17T08:05:59;17.92;;;16.13;;
7965;SDS011;4028;43.272;26.932;2024-03-17T08:08:25;18.10;;;16.05;;
7965;SDS011;4028;43.272;26.932;2024-03-17T08:10:51;17.27;;;15.52;;
7965;SDS011;4028;43.272;26.932;2024-03-17T08:13:17;22.38;;;19.92;;
7965;SDS011;4028;43.272;26.932;2024-03-17T08:15:43;21.15;;;19.05;;
7965;SDS011;4028;43.272;26.932;2024-03-17T08:18:10;19.33;;;17.33;;
7965;SDS011;4028;43.272;26.932;2024-03-17T08:20:39;18.23;;;16.52;;
7965;SDS011;4028;43.272;26.932;2024-03-17T08:23:06;17.05;;;15.35;;
7965;SDS011;4028;43.272;26.932;2024-03-17T08:25:34;16.08;;;14.48;;
7965;SDS011;4028;43.272;26.932;2024-03-17T08:28:00;17.70;;;15.90;;
7965;SDS011;4028;43.272;26.932;2024-03-17T08:30:27;17.17;;;15.40;;
7965;SDS011;4028;43.272;26.932;2024-03-17T08:32:53;19.05;;;16.83;;
7965;SDS011;4028;43.272;26.932;2024-03-17T08:35:18;17.58;;;15.77;;
7965;SDS011;4028;43.272;26.932;2024-03-17T08:37:44;16.58;;;14.90;;
7965;SDS011;4028;43.272;26.932;2024-03-17T08:40:10;17.40;;;15.70;;
7965;SDS011;4028;43.272;26.932;2024-03-17T08:42:36;17.88;;;15.70;;
7965;SDS011;4028;43.272;26.932;2024-03-17T08:45:01;16.30;;;14.65;;
7965;SDS011;4028;43.272;26.932;2024-03-17T08:47:28;16.48;;;14.75;;
7965;SDS011;4028;43.272;26.932;2024-03-17T08:49:53;17.38;;;15.48;;
7965;SDS011;4028;43.272;26.932;2024-03-17T08:52:19;18.77;;;15.63;;
7965;SDS011;4028;43.272;26.932;2024-03-17T08:54:49;14.93;;;13.50;;
7965;SDS011;4028;43.272;26.932;2024-03-17T08:57:16;15.80;;;14.30;;
7965;SDS011;4028;43.272;26.932;2024-03-17T08:59:42;17.83;;;13.52;;
7965;SDS011;4028;43.272;26.932;2024-03-17T09:02:11;14.65;;;13.15;;
7965;SDS011;4028;43.272;26.932;2024-03-17T09:04:39;14.32;;;12.88;;
7965;SDS011;4028;43.272;26.932;2024-03-17T09:07:08;11.98;;;10.77;;
7965;SDS011;4028;43.272;26.932;2024-03-17T09:09:33;14.95;;;13.45;;
7965;SDS011;4028;43.272;26.932;2024-03-17T09:11:59;15.15;;;13.52;;
7965;SDS011;4028;43.272;26.932;2024-03-17T09:14:24;13.95;;;12.32;;
7965;SDS011;4028;43.272;26.932;2024-03-17T09:16:50;12.07;;;10.80;;
7965;SDS011;4028;43.272;26.932;2024-03-17T09:19:15;14.73;;;10.77;;
7965;SDS011;4028;43.272;26.932;2024-03-17T09:21:41;11.23;;;8.95;;
7965;SDS011;4028;43.272;26.932;2024-03-17T09:24:07;14.15;;;11.50;;
7965;SDS011;4028;43.272;26.932;2024-03-17T09:26:33;16.25;;;11.25;;
7965;SDS011;4028;43.272;26.932;2024-03-17T09:28:59;11.68;;;9.27;;
7965;SDS011;4028;43.272;26.932;2024-03-17T09:31:25;8.18;;;7.38;;
7965;SDS011;4028;43.272;26.932;2024-03-17T09:33:51;9.68;;;8.43;;
7965;SDS011;4028;43.272;26.932;2024-03-17T09:36:16;9.27;;;8.38;;
7965;SDS011;4028;43.272;26.932;2024-03-17T09:38:43;10.73;;;9.70;;
7965;SDS011;4028;43.272;26.932;2024-03-17T09:41:19;7.85;;;7.05;;
7965;SDS011;4028;43.272;26.932;2024-03-17T09:43:46;9.05;;;7.82;;
7965;SDS011;4028;43.272;26.932;2024-03-17T09:46:12;10.45;;;7.95;;
7965;SDS011;4028;43.272;26.932;2024-03-17T09:48:39;8.25;;;7.45;;
7965;SDS011;4028;43.272;26.932;2024-03-17T09:51:05;7.70;;;7.00;;
7965;SDS011;4028;43.272;26.932;2024-03-17T09:53:34;8.75;;;7.85;;
7965;SDS011;4028;43.272;26.932;2024-03-17T09:56:05;8.45;;;7.65;;
7965;SDS011;4028;43.272;26.932;2024-03-17T09:58:34;9.60;;;8.05;;
7965;SDS011;4028;43.272;26.932;2024-03-17T10:01:00;8.75;;;6.32;;
7965;SDS011;4028;43.272;26.932;2024-03-17T10:06:24;7.10;;;6.40;;
7965;SDS011;4028;43.272;26.932;2024-03-17T10:08:54;7.25;;;6.55;;
7965;SDS011;4028;43.272;26.932;2024-03-17T10:11:21;7.10;;;6.40;;
7965;SDS011;4028;43.272;26.932;2024-03-17T10:16:31;6.68;;;6.07;;
7965;SDS011;4028;43.272;26.932;2024-03-17T10:21:39;6.75;;;6.15;;
7965;SDS011;4028;43.272;26.932;2024-03-17T10:24:07;7.50;;;6.50;;
7965;SDS011;4028;43.272;26.932;2024-03-17T10:26:49;6.97;;;6.07;;
7965;SDS011;4028;43.272;26.932;2024-03-17T10:29:26;6.95;;;5.57;;
7965;SDS011;4028;43.272;26.932;2024-03-17T10:32:05;8.00;;;5.43;;
7965;SDS011;4028;43.272;26.932;2024-03-17T10:34:38;4.88;;;4.43;;
7965;SDS011;4028;43.272;26.932;2024-03-17T10:39:48;4.07;;;3.70;;
7965;SDS011;4028;43.272;26.932;2024-03-17T10:42:22;5.00;;;4.50;;
7965;SDS011;4028;43.272;26.932;2024-03-17T10:44:50;3.72;;;3.42;;
7965;SDS011;4028;43.272;26.932;2024-03-17T10:47:23;2.90;;;2.70;;
7965;SDS011;4028;43.272;26.932;2024-03-17T10:49:53;2.45;;;2.25;;
7965;SDS011;4028;43.272;26.932;2024-03-17T10:52:20;2.00;;;1.90;;
7965;SDS011;4028;43.272;26.932;2024-03-17T10:54:51;2.25;;;2.05;;
7965;SDS011;4028;43.272;26.932;2024-03-17T11:00:05;3.67;;;3.38;;
7965;SDS011;4028;43.272;26.932;2024-03-17T11:02:33;3.63;;;3.33;;
7965;SDS011;4028;43.272;26.932;2024-03-17T11:05:04;3.42;;;3.13;;
7965;SDS011;4028;43.272;26.932;2024-03-17T11:07:34;4.78;;;3.20;;
7965;SDS011;4028;43.272;26.932;2024-03-17T11:10:08;3.10;;;2.80;;
7965;SDS011;4028;43.272;26.932;2024-03-17T11:20:38;3.30;;;3.10;;
7965;SDS011;4028;43.272;26.932;2024-03-17T11:23:05;3.00;;;2.80;;
7965;SDS011;4028;43.272;26.932;2024-03-17T11:38:55;2.95;;;2.75;;
7965;SDS011;4028;43.272;26.932;2024-03-17T11:49:27;3.83;;;2.92;;
7965;SDS011;4028;43.272;26.932;2024-03-17T11:51:55;2.80;;;2.60;;
7965;SDS011;4028;43.272;26.932;2024-03-17T11:54:25;3.10;;;2.90;;
7965;SDS011;4028;43.272;26.932;2024-03-17T11:56:55;3.75;;;2.78;;
7965;SDS011;4028;43.272;26.932;2024-03-17T11:59:26;2.80;;;2.60;;
7965;SDS011;4028;43.272;26.932;2024-03-17T12:01:51;3.25;;;2.95;;
7965;SDS011;4028;43.272;26.932;2024-03-17T12:04:18;2.97;;;2.78;;
7965;SDS011;4028;43.272;26.932;2024-03-17T12:06:49;2.90;;;2.58;;
7965;SDS011;4028;43.272;26.932;2024-03-17T12:11:42;2.80;;;2.60;;
7965;SDS011;4028;43.272;26.932;2024-03-17T12:14:40;9.10;;;3.10;;
7965;SDS011;4028;43.272;26.932;2024-03-17T12:17:00;3.95;;;2.65;;
7965;SDS011;4028;43.272;26.932;2024-03-17T12:19:30;3.28;;;2.95;;
7965;SDS011;4028;43.272;26.932;2024-03-17T12:21:56;2.92;;;2.72;;
7965;SDS011;4028;43.272;26.932;2024-03-17T12:24:25;3.67;;;3.38;;
7965;SDS011;4028;43.272;26.932;2024-03-17T12:26:53;3.65;;;3.15;;
7965;SDS011;4028;43.272;26.932;2024-03-17T12:31:52;6.60;;;2.50;;
7965;SDS011;4028;43.272;26.932;2024-03-17T12:34:19;3.50;;;3.20;;
7965;SDS011;4028;43.272;26.932;2024-03-17T12:36:46;2.90;;;2.70;;
7965;SDS011;4028;43.272;26.932;2024-03-17T12:39:20;3.40;;;2.97;;
7965;SDS011;4028;43.272;26.932;2024-03-17T12:44:33;5.03;;;3.08;;
7965;SDS011;4028;43.272;26.932;2024-03-17T12:47:06;3.60;;;3.28;;
7965;SDS011;4028;43.272;26.932;2024-03-17T12:49:34;4.18;;;3.63;;
7965;SDS011;4028;43.272;26.932;2024-03-17T12:52:00;4.43;;;3.30;;
7965;SDS011;4028;43.272;26.932;2024-03-17T12:54:27;4.35;;;3.35;;
7965;SDS011;4028;43.272;26.932;2024-03-17T12:57:06;3.60;;;3.30;;
7965;SDS011;4028;43.272;26.932;2024-03-17T12:59:51;3.63;;;3.33;;
7965;SDS011;4028;43.272;26.932;2024-03-17T13:02:44;3.72;;;3.42;;
7965;SDS011;4028;43.272;26.932;2024-03-17T13:05:17;3.20;;;2.90;;
7965;SDS011;4028;43.272;26.932;2024-03-17T13:07:44;4.22;;;3.17;;
7965;SDS011;4028;43.272;26.932;2024-03-17T13:10:20;3.63;;;3.33;;
7965;SDS011;4028;43.272;26.932;2024-03-17T13:12:46;6.72;;;3.60;;
7965;SDS011;4028;43.272;26.932;2024-03-17T13:15:16;3.58;;;3.20;;
7965;SDS011;4028;43.272;26.932;2024-03-17T13:17:45;4.03;;;3.47;;
7965;SDS011;4028;43.272;26.932;2024-03-17T13:20:12;3.95;;;3.00;;
7965;SDS011;4028;43.272;26.932;2024-03-17T13:22:41;3.95;;;3.63;;
7965;SDS011;4028;43.272;26.932;2024-03-17T13:27:46;3.10;;;2.90;;
7965;SDS011;4028;43.272;26.932;2024-03-17T13:30:13;3.78;;;3.47;;
7965;SDS011;4028;43.272;26.932;2024-03-17T13:32:40;3.80;;;3.08;;
7965;SDS011;4028;43.272;26.932;2024-03-17T13:35:19;3.13;;;2.92;;
7965;SDS011;4028;43.272;26.932;2024-03-17T13:37:46;4.80;;;3.40;;
7965;SDS011;4028;43.272;26.932;2024-03-17T13:40:16;3.53;;;3.22;;
7965;SDS011;4028;43.272;26.932;2024-03-17T13:42:45;3.40;;;3.10;;
7965;SDS011;4028;43.272;26.932;2024-03-17T13:45:12;6.03;;;3.42;;
7965;SDS011;4028;43.272;26.932;2024-03-17T13:47:39;7.53;;;3.33;;
7965;SDS011;4028;43.272;26.932;2024-03-17T13:50:10;3.58;;;3.20;;
7965;SDS011;4028;43.272;26.932;2024-03-17T13:52:37;4.07;;;3.22;;
7965;SDS011;4028;43.272;26.932;2024-03-17T13:55:13;3.65;;;3.30;;
7965;SDS011;4028;43.272;26.932;2024-03-17T13:57:39;5.20;;;3.20;;
7965;SDS011;4028;43.272;26.932;2024-03-17T14:00:06;3.28;;;2.97;;
7965;SDS011;4028;43.272;26.932;2024-03-17T14:02:32;4.82;;;3.28;;
7965;SDS011;4028;43.272;26.932;2024-03-17T14:04:58;3.38;;;3.03;;
7965;SDS011;4028;43.272;26.932;2024-03-17T14:07:24;3.42;;;3.13;;
7965;SDS011;4028;43.272;26.932;2024-03-17T14:09:50;4.10;;;3.22;;
7965;SDS011;4028;43.272;26.932;2024-03-17T14:12:16;3.30;;;3.10;;
7965;SDS011;4028;43.272;26.932;2024-03-17T14:14:41;3.45;;;3.17;;
7965;SDS011;4028;43.272;26.932;2024-03-17T14:17:08;3.63;;;3.33;;
7965;SDS011;4028;43.272;26.932;2024-03-17T14:19:34;3.50;;;3.20;;
7965;SDS011;4028;43.272;26.932;2024-03-17T14:22:00;3.15;;;2.85;;
7965;SDS011;4028;43.272;26.932;2024-03-17T14:24:26;3.80;;;3.40;;
7965;SDS011;4028;43.272;26.932;2024-03-17T14:26:51;2.80;;;2.60;;
7965;SDS011;4028;43.272;26.932;2024-03-17T14:29:17;4.57;;;3.13;;
7965;SDS011;4028;43.272;26.932;2024-03-17T14:31:43;3.63;;;3.30;;
7965;SDS011;4028;43.272;26.932;2024-03-17T14:34:10;3.40;;;3.10;;
7965;SDS011;4028;43.272;26.932;2024-03-17T14:36:36;3.42;;;3.13;;
7965;SDS011;4028;43.272;26.932;2024-03-17T14:39:02;3.42;;;3.13;;
7965;SDS011;4028;43.272;26.932;2024-03-17T14:41:28;3.47;;;3.17;;
7965;SDS011;4028;43.272;26.932;2024-03-17T14:43:56;4.40;;;3.58;;
7965;SDS011;4028;43.272;26.932;2024-03-17T14:46:22;3.90;;;3.20;;
7965;SDS011;4028;43.272;26.932;2024-03-17T14:48:48;4.43;;;3.70;;
7965;SDS011;4028;43.272;26.932;2024-03-17T14:51:16;4.70;;;3.83;;
7965;SDS011;4028;43.272;26.932;2024-03-17T14:53:46;5.53;;;4.40;;
7965;SDS011;4028;43.272;26.932;2024-03-17T14:56:17;3.55;;;3.25;;
7965;SDS011;4028;43.272;26.932;2024-03-17T14:58:43;5.53;;;3.58;;
7965;SDS011;4028;43.272;26.932;2024-03-17T15:01:09;5.40;;;3.53;;
7965;SDS011;4028;43.272;26.932;2024-03-17T15:03:35;5.30;;;3.63;;
7965;SDS011;4028;43.272;26.932;2024-03-17T15:06:01;4.82;;;3.10;;
7965;SDS011;4028;43.272;26.932;2024-03-17T15:08:29;4.18;;;3.78;;
7965;SDS011;4028;43.272;26.932;2024-03-17T15:10:55;3.97;;;3.63;;
7965;SDS011;4028;43.272;26.932;2024-03-17T15:13:21;3.90;;;3.53;;
7965;SDS011;4028;43.272;26.932;2024-03-17T15:15:48;8.63;;;3.95;;
7965;SDS011;4028;43.272;26.932;2024-03-17T15:18:14;5.07;;;4.60;;
7965;SDS011;4028;43.272;26.932;2024-03-17T15:20:41;5.80;;;4.57;;
7965;SDS011;4028;43.272;26.932;2024-03-17T15:23:06;4.45;;;4.05;;
7965;SDS011;4028;43.272;26.932;2024-03-17T15:25:32;5.13;;;4.63;;
7965;SDS011;4028;43.272;26.932;2024-03-17T15:27:58;7.45;;;4.78;;
7965;SDS011;4028;43.272;26.932;2024-03-17T15:30:24;5.82;;;5.25;;
7965;SDS011;4028;43.272;26.932;2024-03-17T15:32:51;6.03;;;5.43;;
7965;SDS011;4028;43.272;26.932;2024-03-17T15:35:20;6.38;;;5.00;;
7965;SDS011;4028;43.272;26.932;2024-03-17T15:37:46;5.82;;;4.20;;
7965;SDS011;4028;43.272;26.932;2024-03-17T15:40:13;9.98;;;4.50;;
7965;SDS011;4028;43.272;26.932;2024-03-17T15:42:42;6.65;;;4.70;;